Latest Weather Observations for Cultana (Defence)

IDS60801

Issued at 12:01 pm CST Monday 16 September 2019 (issued every 10 minutes, with the page automatically refreshed every 10 minutes)

About weather observations | Map of weather stations | Latest weather observations for SA | Other Formats
Station Details ID: 018229 Name: CULTANA (DEFENCE) Lat: -32.68 Lon: 137.37 Height: 171.0 m
Data from the previous 72 hours. | See also: Recent months at Cultana (Defence)
Date/Time
CST
Temp
°C
App
Temp
°C
Dew
Point
°C
Rel
Hum
%
Delta-T
°C
Wind Press
QNH
hPa
Press
MSL
hPa
Rain since
9am
mm
Dir  Spd
km/h
Gust
km/h
Spd
kts
Gust
kts
16/12:00pm 14.4 6.0 7.5 63 3.4 S 41 54 22 29 - - 0.0
16/11:30am 15.0 6.8 8.3 64 3.4 S 41 50 22 27 - - 0.0
16/11:00am 13.9 4.9 8.7 71 2.6 S 46 57 25 31 - - 0.0
16/10:30am 13.4 5.4 9.1 75 2.2 S 41 50 22 27 - - 0.0
16/10:00am 14.0 7.1 9.0 72 2.6 SSE 35 43 19 23 - - 0.0
16/09:30am 13.6 6.7 8.7 72 2.5 SSE 35 44 19 24 - - 0.0
16/09:29am 13.6 7.0 8.7 72 2.5 SSE 33 44 18 24 - - 0.0
16/09:00am 13.1 4.4 8.4 73 2.4 S 44 57 24 31 - - 0.0
16/08:30am 12.7 3.5 7.8 72 2.4 S 46 57 25 31 - - 0.0
16/08:00am 12.2 3.5 7.5 73 2.3 S 43 57 23 31 - - 0.0
16/07:30am 12.0 2.7 7.5 74 2.2 SSW 46 59 25 32 - - 0.0
16/07:00am 11.9 3.9 7.4 74 2.2 SSW 39 46 21 25 - - 0.0
16/06:30am 12.0 4.9 7.9 76 2.0 SSW 35 44 19 24 - - 0.0
16/06:00am 12.0 4.4 7.5 74 2.2 S 37 46 20 25 - - 0.0
16/05:30am 12.3 5.2 8.2 76 2.0 S 35 46 19 25 - - 0.0
16/05:00am 12.8 5.0 9.8 82 1.5 S 41 54 22 29 - - 0.0
16/04:30am 13.1 6.0 10.8 86 1.2 S 39 50 21 27 - - 0.0
16/04:00am 13.4 7.5 11.3 87 1.1 S 33 43 18 23 - - 0.0
16/03:30am 13.7 6.9 11.8 88 1.0 S 39 46 21 25 - - 0.0
16/03:00am 13.9 7.8 11.9 88 1.1 S 35 46 19 25 - - 0.0
16/02:30am 14.1 7.7 12.1 88 1.1 S 37 52 20 28 - - 0.0
16/02:00am 14.1 8.0 11.8 86 1.2 S 35 48 19 26 - - 0.0
16/01:30am 14.2 7.4 11.9 86 1.2 S 39 48 21 26 - - 0.0
16/01:00am 14.8 9.5 11.2 79 1.9 S 30 35 16 19 - - 0.0
16/12:30am 15.3 10.1 10.3 72 2.6 S 28 33 15 18 - - 0.0
16/12:00am 16.0 10.5 9.2 64 3.5 S 28 35 15 19 - - 0.0
 
Date/Time
CST
Temp
°C
App
Temp
°C
Dew
Point
°C
Rel
Hum
%
Delta-T
°C
Wind Press
QNH
hPa
Press
MSL
hPa
Rain since
9am
mm
Dir  Spd
km/h
Gust
km/h
Spd
kts
Gust
kts
15/11:30pm 16.7 10.9 8.1 57 4.4 S 28 35 15 19 - - 0.0
15/11:00pm 17.5 11.9 7.0 50 5.3 SSE 26 33 14 18 - - 0.0
15/10:30pm 18.0 13.0 6.5 47 5.7 SSE 22 28 12 15 - - 0.0
15/10:00pm 18.5 13.2 7.0 47 5.8 SSE 24 32 13 17 - - 0.0
15/09:30pm 20.4 15.1 4.8 36 7.7 S 22 35 12 19 - - 0.0
15/09:00pm 23.3 18.9 0.4 22 10.6 NE 13 15 7 8 - - 0.0
15/08:30pm 24.2 19.8 0.5 21 11.0 NNE 13 15 7 8 - - 0.0
15/08:00pm 24.6 20.3 0.8 21 11.2 NNE 13 15 7 8 - - 0.0
15/07:30pm 25.8 21.4 0.5 19 11.9 NNE 13 15 7 8 - - 0.0
15/07:00pm 26.1 20.6 0.7 19 12.0 NNE 19 20 10 11 - - 0.0
15/06:30pm 26.8 21.7 0.5 18 12.5 N 17 19 9 10 - - 0.0
15/06:00pm 27.7 22.6 0.5 17 13.0 N 17 20 9 11 - - 0.0
15/05:30pm 28.9 23.2 0.6 16 13.7 NNE 20 26 11 14 - - 0.0
15/05:00pm 29.4 23.0 1.0 16 13.8 NNE 24 33 13 18 - - 0.0
15/04:30pm 28.8 23.4 1.3 17 13.4 NW 19 56 10 30 - - 0.0
15/04:22pm 27.8 17.8 4.2 22 12.0 W 46 72 25 39 - - 0.0
15/04:20pm 27.9 17.5 4.2 22 12.1 W 48 72 26 39 - - 0.0
15/04:13pm 29.0 20.5 0.7 16 13.7 W 35 54 19 29 - - 0.0
15/04:00pm 28.5 22.5 3.4 20 12.7 WSW 24 33 13 18 - - 0.0
15/03:30pm 30.5 23.7 -2.1 12 15.2 NNW 24 35 13 19 - - 0.0
15/03:00pm 31.2 23.3 -1.5 12 15.5 NNW 30 41 16 22 - - 0.0
15/02:30pm 32.6 25.1 -1.7 11 16.3 NNW 28 41 15 22 - - 0.0
15/02:00pm 30.8 22.6 -0.8 13 15.1 NNW 32 41 17 22 - - 0.0
15/01:30pm 31.5 23.8 -0.2 13 15.4 NNW 30 44 16 24 - - 0.0
15/01:00pm 31.0 22.9 -0.6 13 15.2 NNW 32 43 17 23 - - 0.0
15/12:46pm 30.3 22.2 -0.1 14 14.6 N 32 50 17 27 - - 0.0
15/12:30pm 30.7 23.4 0.2 14 14.8 NNW 28 37 15 20 - - 0.0
15/12:00pm 30.7 22.7 0.2 14 14.8 N 32 43 17 23 - - 0.0
15/11:30am 30.3 22.2 0.8 15 14.4 NNW 33 46 18 25 - - 0.0
15/11:12am 30.3 22.7 0.8 15 14.4 N 30 48 16 26 - - 0.0
15/11:00am 29.7 21.6 1.2 16 14.0 NNW 33 44 18 24 - - 0.0
15/10:55am 29.4 20.9 1.0 16 13.8 N 35 44 19 24 - - 0.0
15/10:30am 28.5 20.6 1.1 17 13.3 N 32 41 17 22 - - 0.0
15/10:00am 26.8 18.9 1.3 19 12.3 N 32 41 17 22 - - 0.0
15/09:30am 24.6 17.1 1.5 22 11.0 N 30 37 16 20 - - 0.0
15/09:00am 23.2 14.7 0.9 23 10.4 N 35 43 19 23 - - 0.0
15/08:30am 21.1 14.1 1.9 28 9.0 N 28 35 15 19 - - 0.0
15/08:00am 18.9 12.7 1.9 32 7.8 NNE 24 30 13 16 - - 0.0
15/07:30am 16.8 10.6 2.0 37 6.7 NNE 24 28 13 15 - - 0.0
15/07:00am 17.2 11.3 2.0 36 6.9 NNE 22 26 12 14 - - 0.0
15/06:30am 16.5 10.3 2.2 38 6.5 NNE 24 28 13 15 - - 0.0
15/06:00am 16.8 11.1 2.8 39 6.4 NNE 22 26 12 14 - - 0.0
15/05:30am 17.3 11.7 3.2 39 6.6 NNE 22 28 12 15 - - 0.0
15/05:00am 17.9 12.6 3.0 37 6.9 N 20 24 11 13 - - 0.0
15/04:30am 18.7 13.1 3.7 37 7.1 NNE 22 30 12 16 - - 0.0
15/04:00am 18.3 12.8 3.8 38 6.9 NNE 22 28 12 15 - - 0.0
15/03:30am 18.4 12.8 3.5 37 7.0 NNE 22 26 12 14 - - 0.0
15/03:00am 18.2 13.0 3.3 37 7.0 NNE 20 24 11 13 - - 0.0
15/02:30am 18.5 13.2 2.8 35 7.3 NNE 20 22 11 12 - - 0.0
15/02:00am 18.8 13.1 3.0 35 7.4 NNE 22 26 12 14 - - 0.0
15/01:30am 17.9 12.2 2.6 36 7.1 NNE 22 26 12 14 - - 0.0
15/01:00am 19.8 14.4 2.6 32 8.1 N 20 26 11 14 - - 0.0
15/12:30am 20.4 15.0 2.7 31 8.3 NNE 20 26 11 14 - - 0.0
15/12:00am 20.4 14.7 2.7 31 8.3 NNE 22 26 12 14 - - 0.0
 
Date/Time
CST
Temp
°C
App
Temp
°C
Dew
Point
°C
Rel
Hum
%
Delta-T
°C
Wind Press
QNH
hPa
Press
MSL
hPa
Rain since
9am
mm
Dir  Spd
km/h
Gust
km/h
Spd
kts
Gust
kts
14/11:30pm 21.1 15.8 2.9 30 8.7 N 20 22 11 12 - - 0.0
14/11:00pm 20.8 14.7 2.6 30 8.6 NNE 24 26 13 14 - - 0.0
14/10:30pm 21.2 15.8 2.5 29 8.8 NNE 20 22 11 12 - - 0.0
14/10:00pm 21.8 16.5 2.0 27 9.3 NNE 19 20 10 11 - - 0.0
14/09:30pm 22.5 18.6 0.9 24 10.0 NE 11 15 6 8 - - 0.0
14/09:00pm 24.2 21.0 0.5 21 11.0 N 7 9 4 5 - - 0.0
14/08:30pm 25.4 21.4 0.8 20 11.6 NNW 11 11 6 6 - - 0.0
14/08:00pm 25.7 22.2 1.1 20 11.7 NW 9 9 5 5 - - 0.0
14/07:30pm 25.9 22.4 1.2 20 11.8 NW 9 9 5 5 - - 0.0
14/07:00pm 26.1 22.1 0.7 19 12.0 WNW 11 11 6 6 - - 0.0
14/06:30pm 26.5 22.2 1.0 19 12.2 WNW 13 17 7 9 - - 0.0
14/06:00pm 28.2 23.1 0.9 17 13.2 WNW 17 20 9 11 - - 0.0
14/05:30pm 29.6 25.1 2.0 17 13.7 WNW 15 17 8 9 - - 0.0
14/05:00pm 29.8 25.1 2.9 18 13.6 NW 17 24 9 13 - - 0.0
14/04:30pm 30.4 26.0 2.6 17 14.0 WNW 15 26 8 14 - - 0.0
14/04:00pm 30.2 27.4 3.3 18 13.7 NW 7 15 4 8 - - 0.0
14/03:30pm 30.1 25.6 4.0 19 13.5 N 17 26 9 14 - - 0.0
14/03:00pm 29.9 25.5 4.5 20 13.2 NNE 17 32 9 17 - - 0.0
14/02:30pm 29.7 25.4 5.1 21 12.9 NNE 17 26 9 14 - - 0.0
14/02:00pm 29.1 24.8 5.2 22 12.5 NNE 17 32 9 17 - - 0.0
14/01:30pm 29.7 25.5 5.7 22 12.7 N 17 30 9 16 - - 0.0
14/01:00pm 28.7 23.9 5.5 23 12.2 NNE 20 30 11 16 - - 0.0
14/12:30pm 28.0 22.8 5.6 24 11.7 N 22 32 12 17 - - 0.0
14/12:00pm 27.2 22.4 5.5 25 11.3 N 20 28 11 15 - - 0.0
14/11:30am 26.5 20.5 5.5 26 10.9 NNE 26 32 14 17 - - 0.0
14/11:00am 25.2 19.6 5.4 28 10.2 N 24 33 13 18 - - 0.0
14/10:30am 24.0 19.4 6.3 32 9.2 NNE 20 28 11 15 - - 0.0
14/10:00am 22.7 19.3 7.7 38 7.9 N 15 20 8 11 - - 0.0
14/09:30am 21.0 17.9 7.3 41 7.1 NNE 13 19 7 10 - - 0.0
14/09:00am 19.0 16.9 8.1 49 5.7 NNE 9 11 5 6 - - 0.0
14/08:30am 15.5 15.3 9.2 66 3.3 CALM 0 0 0 0 - - 0.0
14/08:00am 12.9 12.8 9.5 80 1.7 CALM 0 0 0 0 - - 0.0
14/07:30am 11.4 10.6 9.5 88 1.0 SE 4 6 2 3 - - 0.0
14/07:00am 10.3 8.8 9.2 93 0.6 S 7 9 4 5 - - 0.0
14/06:30am 9.7 7.8 8.9 95 0.4 SSW 9 9 5 5 - - 0.0
14/06:00am 10.0 8.6 9.5 97 0.3 SSW 7 9 4 5 - - 0.0
14/05:30am 10.0 7.8 9.4 96 0.3 S 11 11 6 6 - - 0.0
14/05:00am 9.9 6.9 9.1 95 0.4 S 15 15 8 8 - - 0.0
14/04:30am 9.6 6.0 8.5 93 0.5 S 17 17 9 9 - - 0.0
14/04:00am 9.8 6.3 8.6 92 0.6 S 17 17 9 9 - - 0.0
14/03:30am 10.4 7.5 9.5 94 0.5 S 15 17 8 9 - - 0.0
14/03:00am 10.6 7.3 9.4 92 0.6 S 17 19 9 10 - - 0.0
14/02:30am 11.1 8.5 9.5 90 0.8 S 13 15 7 8 - - 0.0
14/02:00am 11.5 9.3 9.4 87 1.1 SSE 11 13 6 7 - - 0.0
14/01:30am 11.5 8.1 9.1 85 1.2 S 17 19 9 10 - - 0.0
14/01:00am 11.7 7.8 8.7 82 1.5 S 19 20 10 11 - - 0.0
14/12:30am 12.1 8.1 8.4 78 1.8 S 19 20 10 11 - - 0.0
14/12:00am 12.4 8.3 7.9 74 2.2 S 19 20 10 11 - - 0.0
 
Date/Time
CST
Temp
°C
App
Temp
°C
Dew
Point
°C
Rel
Hum
%
Delta-T
°C
Wind Press
QNH
hPa
Press
MSL
hPa
Rain since
9am
mm
Dir  Spd
km/h
Gust
km/h
Spd
kts
Gust
kts
13/11:30pm 12.6 8.8 7.5 71 2.5 S 17 19 9 10 - - 0.0
13/11:00pm 12.6 9.9 7.5 71 2.5 S 11 15 6 8 - - 0.0
13/10:30pm 12.9 9.9 7.6 70 2.6 SSE 13 15 7 8 - - 0.0
13/10:00pm 13.4 10.3 7.4 67 3.0 S 13 15 7 8 - - 0.0
13/09:30pm 13.3 11.3 7.1 66 3.0 SE 7 9 4 5 - - 0.0
13/09:00pm 14.0 10.8 6.8 62 3.5 SSE 13 15 7 8 - - 0.0
13/08:30pm 14.6 10.9 6.2 57 4.1 SE 15 19 8 10 - - 0.0
13/08:00pm 15.3 11.9 3.8 46 5.3 SE 11 15 6 8 - - 0.0
13/07:30pm 16.1 11.2 4.2 45 5.6 SSE 19 22 10 12 - - 0.0
13/07:00pm 16.9 12.0 5.2 46 5.7 S 20 26 11 14 - - 0.0
13/06:30pm 17.6 13.5 6.2 47 5.6 S 17 20 9 11 - - 0.0
13/06:00pm 18.7 13.2 5.9 43 6.4 S 24 32 13 17 - - 0.0
13/05:30pm 20.1 14.3 4.2 35 7.7 SSE 24 32 13 17 - - 0.0
13/05:00pm 21.1 15.1 5.1 35 7.9 SSE 26 32 14 17 - - 0.0
13/04:30pm 22.2 16.3 6.0 35 8.2 SSE 26 35 14 19 - - 0.0
13/04:00pm 23.1 18.5 6.4 34 8.6 S 20 28 11 15 - - 0.0
13/03:30pm 23.4 19.0 6.7 34 8.7 SSE 19 30 10 16 - - 0.0
13/03:00pm 23.4 19.1 7.1 35 8.5 SE 19 28 10 15 - - 0.0
13/02:30pm 23.1 18.6 6.8 35 8.5 SSE 20 30 11 16 - - 0.0
13/02:00pm 23.0 18.5 7.1 36 8.3 SSE 20 33 11 18 - - 0.0
13/01:30pm 22.9 18.6 7.1 36 8.2 SSE 19 30 10 16 - - 0.0
13/01:00pm 22.7 18.1 6.5 35 8.3 SSE 20 30 11 16 - - 0.0
13/12:30pm 21.8 18.5 9.7 46 6.6 SSE 17 26 9 14 - - 0.0

Other formats

Comma delimited format used in spreadsheet applications
http://www.bom.gov.au/fwo/IDS60801/IDS60801.95683.axf

JavaScript Object Notation format (JSON) in row-major order
http://www.bom.gov.au/fwo/IDS60801/IDS60801.95683.json

Data quality

Most of these data are generated automatically and are frequently updated. Quality checks on data are not normally performed. It is possible for incorrect values to appear. Refer to information at About Latest Weather Observations and please check the disclaimer before using these data.